Time;durP1;ratioP1;P1;durP2;ratioP2;P2;SDS_P1;SDS_P2;PMS_P1;PMS_P2;Temp;Humidity;BMP_temperature;BMP_pressure;BME280_temperature;BME280_humidity;BME280_pressure;Samples;Min_cycle;Max_cycle;Signal;HPM_P1;HPM_P2
2022/10/12 00:02:27;;;;;;;16.58;6.97;;;;;;;6.45;70.80;101433.09;10049393;29;20556;-80
2022/10/12 00:07:29;;;;;;;17.80;7.00;;;;;;;6.38;71.01;101431.66;10054601;29;20652;-80
2022/10/12 00:12:34;;;;;;;12.88;6.30;;;;;;;6.42;71.24;101424.34;10062575;29;20125;-79
2022/10/12 00:17:36;;;;;;;18.13;6.30;;;;;;;6.45;71.29;101432.25;10099043;29;20088;-78
2022/10/12 00:22:40;;;;;;;16.73;7.20;;;;;;;6.54;70.99;101435.34;10071424;29;20061;-79
2022/10/12 00:27:45;;;;;;;14.07;6.28;;;;;;;6.53;70.90;101438.09;10041068;29;20052;-80
2022/10/12 00:32:48;;;;;;;11.60;5.25;;;;;;;6.40;71.00;101444.00;10053738;29;20045;-79
2022/10/12 00:37:53;;;;;;;14.88;5.93;;;;;;;6.30;70.82;101437.34;10043663;29;20055;-79
2022/10/12 00:42:57;;;;;;;15.70;6.25;;;;;;;6.33;70.61;101444.34;10045414;29;20595;-79
2022/10/12 00:48:01;;;;;;;17.83;6.15;;;;;;;6.15;70.83;101438.94;10054952;29;20140;-80
2022/10/12 00:53:09;;;;;;;14.90;5.22;;;;;;;5.98;70.97;101443.28;10050761;29;20055;-81
2022/10/12 00:58:14;;;;;;;13.70;5.72;;;;;;;5.87;71.06;101449.97;10059692;29;20088;-80
2022/10/12 01:03:21;;;;;;;9.80;4.55;;;;;;;5.88;70.53;101448.19;10053976;29;20157;-79
2022/10/12 01:08:24;;;;;;;16.40;5.20;;;;;;;5.89;69.81;101441.91;10044693;29;20531;-80
2022/10/12 01:13:29;;;;;;;8.77;5.38;;;;;;;5.82;69.68;101443.97;10048611;29;20134;-80
2022/10/12 01:18:38;;;;;;;11.90;5.50;;;;;;;5.76;69.65;101440.69;10043474;29;20780;-80
2022/10/12 01:24:24;;;;;;;11.00;5.32;;;;;;;5.68;69.93;101439.25;10056601;29;20080;-81
2022/10/12 01:29:42;;;;;;;12.63;5.68;;;;;;;5.62;70.02;101430.66;10047513;29;20060;-80
2022/10/12 01:34:53;;;;;;;16.08;5.78;;;;;;;5.58;69.95;101431.72;10038350;29;20086;-80
2022/10/12 01:39:59;;;;;;;13.52;5.10;;;;;;;5.67;70.14;101432.16;10041108;29;20053;-77
2022/10/12 01:45:04;;;;;;;11.80;5.03;;;;;;;5.77;69.51;101426.47;10039087;29;20132;-80
2022/10/12 01:50:12;;;;;;;13.57;6.50;;;;;;;5.66;69.20;101429.59;10050475;29;20050;-80
2022/10/12 01:55:29;;;;;;;12.77;5.10;;;;;;;5.64;69.25;101421.66;10051394;29;20507;-80
2022/10/12 02:00:40;;;;;;;11.00;4.88;;;;;;;5.54;69.11;101416.78;10061206;29;20057;-80
2022/10/12 02:05:50;;;;;;;12.25;5.05;;;;;;;5.53;69.12;101412.41;10057650;29;20049;-80
2022/10/12 02:10:58;;;;;;;10.23;4.72;;;;;;;5.47;68.89;101406.41;10065708;29;20096;-77
2022/10/12 02:16:04;;;;;;;8.90;4.78;;;;;;;5.43;69.07;101409.25;10084692;29;20045;-77
2022/10/12 02:21:10;;;;;;;12.18;5.18;;;;;;;5.37;69.25;101398.88;10093189;29;20064;-79
2022/10/12 02:26:15;;;;;;;8.55;4.97;;;;;;;5.34;69.97;101393.69;10053689;29;20057;-79
2022/10/12 02:31:28;;;;;;;8.27;5.45;;;;;;;5.34;70.12;101393.69;10057378;29;20068;-80
2022/10/12 02:36:39;;;;;;;8.32;4.68;;;;;;;5.35;69.36;101398.94;10040036;29;20063;-78
2022/10/12 02:41:47;;;;;;;8.60;5.15;;;;;;;5.23;69.41;101388.81;10055469;29;20605;-80
2022/10/12 02:46:53;;;;;;;7.03;4.90;;;;;;;5.21;69.96;101382.66;10061485;29;20056;-80
2022/10/12 02:51:58;;;;;;;8.70;4.47;;;;;;;5.15;70.10;101380.28;10053654;29;20065;-80
2022/10/12 02:57:01;;;;;;;10.63;4.95;;;;;;;5.01;70.96;101375.53;10061363;29;20063;-78
2022/10/12 03:02:04;;;;;;;6.90;4.85;;;;;;;4.78;71.11;101363.16;10059474;29;20049;-80
2022/10/12 03:07:08;;;;;;;9.27;4.13;;;;;;;4.79;71.25;101367.53;10050279;29;20486;-80
2022/10/12 03:12:11;;;;;;;12.95;5.95;;;;;;;4.81;70.93;101368.34;10049891;29;20259;-80
2022/10/12 03:17:14;;;;;;;9.95;5.05;;;;;;;4.62;71.71;101368.22;10055857;29;20073;-79
2022/10/12 03:22:18;;;;;;;7.07;4.00;;;;;;;4.50;71.74;101366.94;10054593;29;20077;-79
2022/10/12 03:27:21;;;;;;;10.45;4.50;;;;;;;4.55;72.24;101372.06;10043589;29;20057;-80
2022/10/12 03:32:24;;;;;;;8.25;4.20;;;;;;;4.62;72.38;101368.22;10063479;29;20053;-77
2022/10/12 03:37:28;;;;;;;11.45;4.65;;;;;;;4.68;72.10;101351.16;10056834;29;20049;-79
2022/10/12 03:42:31;;;;;;;9.77;4.47;;;;;;;4.71;71.46;101356.34;10063969;29;21251;-80
2022/10/12 03:47:33;;;;;;;11.02;4.25;;;;;;;4.65;71.08;101353.94;10060092;29;20067;-80
2022/10/12 03:52:38;;;;;;;8.63;4.70;;;;;;;4.70;70.96;101341.31;10051825;29;20071;-79
2022/10/12 03:57:41;;;;;;;8.40;3.55;;;;;;;4.87;71.06;101343.25;10053874;29;20061;-79
2022/10/12 04:02:44;;;;;;;7.65;3.78;;;;;;;4.93;70.90;101349.19;10043969;29;20053;-80
2022/10/12 04:07:48;;;;;;;9.40;4.25;;;;;;;4.92;70.88;101349.25;10050277;29;20058;-79
2022/10/12 04:12:51;;;;;;;7.72;3.85;;;;;;;4.83;69.99;101342.53;10045221;29;20057;-80
2022/10/12 04:17:54;;;;;;;9.73;3.97;;;;;;;4.77;70.15;101340.09;10050739;29;20052;-79
2022/10/12 04:22:58;;;;;;;7.68;3.70;;;;;;;4.81;70.50;101344.38;10045437;29;20056;-80
2022/10/12 04:28:01;;;;;;;5.63;3.72;;;;;;;4.76;70.38;101338.38;10049429;29;20164;-80
2022/10/12 04:33:04;;;;;;;8.75;3.33;;;;;;;4.63;69.86;101324.69;10049081;29;20069;-79
2022/10/12 04:38:08;;;;;;;6.05;3.58;;;;;;;4.55;70.50;101310.84;10043598;29;20057;-79
2022/10/12 04:43:11;;;;;;;8.18;3.65;;;;;;;4.45;70.40;101310.38;10051432;29;20048;-80
2022/10/12 04:48:14;;;;;;;10.35;4.40;;;;;;;4.45;70.37;101314.84;10010025;29;20050;-79
2022/10/12 04:53:18;;;;;;;7.63;3.70;;;;;;;4.30;70.54;101326.94;10015401;29;20053;-80
2022/10/12 04:58:21;;;;;;;6.60;4.07;;;;;;;4.24;71.08;101321.88;10048289;29;20045;-79
2022/10/12 05:03:24;;;;;;;9.15;3.65;;;;;;;4.26;71.16;101322.69;10052685;29;20143;-80
2022/10/12 05:08:28;;;;;;;5.72;4.03;;;;;;;4.17;71.15;101321.25;10051971;29;20064;-79
2022/10/12 05:13:31;;;;;;;7.72;3.63;;;;;;;3.90;71.53;101323.19;10039441;29;20435;-79
2022/10/12 05:18:33;;;;;;;;;;;;;;;3.81;72.33;101328.84;10053300;29;20061;-79
2022/10/12 05:23:38;;;;;;;8.45;3.83;;;;;;;3.82;71.81;101315.50;10044308;29;19963;-80
2022/10/12 05:28:40;;;;;;;15.13;4.43;;;;;;;3.90;71.45;101312.56;10046529;29;20057;-79
2022/10/12 05:33:43;;;;;;;7.05;3.33;;;;;;;3.95;71.55;101313.25;10059025;29;20060;-79
2022/10/12 05:38:47;;;;;;;5.82;3.67;;;;;;;3.98;71.68;101307.81;10050868;29;20065;-80
2022/10/12 05:43:52;;;;;;;10.75;4.35;;;;;;;4.12;71.55;101305.47;10047360;29;20420;-80
2022/10/12 05:48:54;;;;;;;6.03;4.22;;;;;;;4.17;71.19;101306.16;10048386;29;20114;-79
2022/10/12 05:53:59;;;;;;;11.00;3.72;;;;;;;4.16;70.74;101314.19;10048447;29;20057;-79
2022/10/12 05:59:02;;;;;;;8.65;3.50;;;;;;;4.14;70.01;101318.69;10058876;29;20052;-79
2022/10/12 06:04:05;;;;;;;6.15;3.22;;;;;;;4.06;69.85;101316.38;10048388;29;20204;-80
2022/10/12 06:09:11;;;;;;;5.22;3.13;;;;;;;3.91;70.00;101319.59;10053252;29;20113;-79
2022/10/12 06:14:14;;;;;;;6.03;3.13;;;;;;;4.06;70.05;101315.47;10046866;29;20045;-80
2022/10/12 06:19:16;;;;;;;7.72;4.40;;;;;;;4.26;70.10;101312.91;10048306;29;20067;-79
2022/10/12 06:24:21;;;;;;;16.20;5.28;;;;;;;4.32;72.18;101307.34;10055035;29;20053;-79
2022/10/12 06:29:24;;;;;;;6.32;2.53;;;;;;;5.17;71.24;101306.50;10063174;29;20067;-80
2022/10/12 06:34:26;;;;;;;3.70;1.92;;;;;;;5.80;68.54;101317.00;10058499;29;20057;-78
2022/10/12 06:39:30;;;;;;;;;;;;;;;6.16;65.93;101312.59;10056127;29;20060;-80
2022/10/12 06:44:33;;;;;;;8.82;4.20;;;;;;;6.80;64.20;101310.34;10069165;29;19932;-80
2022/10/12 06:49:36;;;;;;;13.02;6.00;;;;;;;7.11;63.12;101315.03;10049031;29;20052;-80
2022/10/12 06:54:41;;;;;;;12.88;6.22;;;;;;;7.23;62.68;101308.19;10061670;29;20141;-80
2022/10/12 06:59:43;;;;;;;11.02;6.13;;;;;;;7.54;63.18;101320.78;10054161;29;20125;-79
2022/10/12 07:04:50;;;;;;;7.47;4.95;;;;;;;8.10;61.99;101307.94;10062795;29;20193;-79
2022/10/12 07:09:54;;;;;;;12.25;4.88;;;;;;;8.63;60.33;101311.22;10059135;29;20415;-79
2022/10/12 07:14:58;;;;;;;12.40;5.63;;;;;;;9.06;60.44;101312.22;10054870;29;20076;-80
2022/10/12 07:20:01;;;;;;;8.98;5.50;;;;;;;9.43;59.37;101302.78;10053428;29;21181;-79
2022/10/12 07:25:05;;;;;;;;;;;;;;;9.45;59.42;101308.91;10059301;29;20064;-80
2022/10/12 07:30:10;;;;;;;12.00;6.20;;;;;;;8.86;60.18;101320.56;10064517;29;19928;-80
2022/10/12 07:35:13;;;;;;;13.52;5.18;;;;;;;8.09;62.31;101328.50;10053797;29;20119;-81
2022/10/12 07:40:17;;;;;;;10.48;5.25;;;;;;;7.59;64.15;101320.53;10064920;29;20060;-81
2022/10/12 07:45:20;;;;;;;13.13;6.43;;;;;;;8.43;64.57;101323.03;10053463;29;21099;-80
2022/10/12 07:50:24;;;;;;;22.77;8.82;;;;;;;8.72;62.87;101316.00;10085575;29;20066;-79
2022/10/12 07:55:30;;;;;;;75.75;25.85;;;;;;;9.43;63.40;101308.16;10078622;29;20063;-78
2022/10/12 08:00:33;;;;;;;14.85;5.15;;;;;;;10.17;60.23;101292.78;10069180;29;20958;-79
2022/10/12 08:05:36;;;;;;;;;;;;;;;10.45;59.52;101282.91;10101545;29;20061;-78
2022/10/12 08:10:41;;;;;;;11.50;3.88;;;;;;;10.54;58.90;101291.25;10060201;29;19959;-79
2022/10/12 08:15:48;;;;;;;16.77;4.28;;;;;;;11.23;57.03;101301.84;10047761;29;20057;-79
2022/10/12 08:20:51;;;;;;;10.02;4.00;;;;;;;11.64;57.07;101300.78;10045932;29;20494;-78
2022/10/12 08:25:56;;;;;;;;;;;;;;;11.79;55.76;101299.66;10034600;29;20052;-81
2022/10/12 08:30:59;;;;;;;9.07;3.85;;;;;;;12.21;55.43;101304.75;10051980;29;19928;-80
2022/10/12 08:36:03;;;;;;;12.38;4.20;;;;;;;12.88;54.56;101290.78;10067382;29;20057;-79
2022/10/12 08:41:20;;;;;;;16.70;4.15;;;;;;;13.27;52.83;101290.41;10065610;29;20057;-80
2022/10/12 08:46:25;;;;;;;16.80;3.85;;;;;;;13.01;53.38;101300.50;10040862;29;20117;-81
2022/10/12 08:51:44;;;;;;;12.82;4.10;;;;;;;13.34;52.46;101292.63;10053903;29;21173;-80
2022/10/12 08:56:49;;;;;;;12.18;3.90;;;;;;;13.86;52.37;101286.66;10052416;29;20057;-80
2022/10/12 09:02:01;;;;;;;17.75;3.70;;;;;;;14.32;51.42;101285.59;10046037;29;20138;-79
2022/10/12 09:07:08;;;;;;;;;;;;;;;14.70;50.91;101283.41;10038278;29;20052;-81
2022/10/12 09:12:27;;;;;;;9.98;3.17;;;;;;;14.98;49.95;101288.19;10042645;29;20563;-79
2022/10/12 09:17:37;;;;;;;16.42;3.75;;;;;;;15.80;48.59;101275.72;10035174;29;20050;-81
2022/10/12 09:22:43;;;;;;;13.00;3.20;;;;;;;15.73;47.54;101278.09;10016455;29;20049;-79
2022/10/12 09:27:47;;;;;;;10.05;3.45;;;;;;;16.00;47.67;101252.25;10019287;29;20132;-80
2022/10/12 09:33:13;;;;;;;10.57;3.13;;;;;;;15.79;46.87;101255.88;10011687;29;20527;-79
2022/10/12 09:38:16;;;;;;;8.00;3.22;;;;;;;15.61;47.23;101260.25;10012452;29;20052;-80
2022/10/12 09:43:21;;;;;;;14.82;3.50;;;;;;;15.87;48.20;101245.22;10016658;29;20061;-80
2022/10/12 09:48:25;;;;;;;9.90;2.92;;;;;;;16.49;47.38;101235.06;10011941;29;20071;-79
2022/10/12 09:53:33;;;;;;;8.50;2.88;;;;;;;17.04;46.40;101242.59;10035397;29;20476;-79
2022/10/12 09:58:43;;;;;;;8.02;2.47;;;;;;;17.38;45.10;101242.94;10009662;29;20057;-80
2022/10/12 10:03:47;;;;;;;12.20;3.33;;;;;;;16.97;45.57;101242.31;9995823;29;20109;-79
2022/10/12 10:08:50;;;;;;;12.82;2.92;;;;;;;17.99;44.09;101229.81;9990445;29;20180;-77
2022/10/12 10:13:54;;;;;;;9.63;2.83;;;;;;;18.64;43.03;101227.75;9988697;29;20526;-77
2022/10/12 10:19:00;;;;;;;8.02;2.53;;;;;;;17.44;44.34;101227.91;10038264;29;20143;-79
2022/10/12 10:24:04;;;;;;;10.27;2.80;;;;;;;17.30;43.86;101222.97;10054234;29;20053;-79
2022/10/12 10:29:36;;;;;;;10.13;3.33;;;;;;;17.47;44.18;101225.78;10050266;29;20511;-80
2022/10/12 10:34:41;;;;;;;8.38;2.88;;;;;;;17.60;44.22;101219.13;10063099;29;20160;-78
2022/10/12 10:39:48;;;;;;;10.75;2.67;;;;;;;18.92;42.05;101219.50;10057848;29;20060;-80
2022/10/12 10:44:57;;;;;;;8.25;2.50;;;;;;;20.22;40.47;101202.09;10038442;29;20053;-80
2022/10/12 10:50:01;;;;;;;7.93;2.60;;;;;;;21.15;37.82;101196.31;10030788;29;20117;-81
2022/10/12 10:55:21;;;;;;;9.95;2.28;;;;;;;22.16;36.30;101197.41;10033642;29;20596;-81
2022/10/12 11:00:26;;;;;;;9.57;2.10;;;;;;;23.23;35.46;101189.19;10059178;29;20053;-78
2022/10/12 11:05:50;;;;;;;6.38;1.88;;;;;;;23.48;33.76;101187.88;10050655;29;20236;-81
2022/10/12 11:10:58;;;;;;;4.80;2.20;;;;;;;23.89;33.46;101184.63;10047213;29;20049;-79
2022/10/12 11:16:08;;;;;;;9.55;2.50;;;;;;;24.07;32.84;101189.66;10042847;29;20056;-80
2022/10/12 11:21:15;;;;;;;7.22;2.42;;;;;;;22.34;34.96;101174.19;10036772;29;20057;-81
2022/10/12 11:26:24;;;;;;;10.30;2.90;;;;;;;21.55;37.32;101172.59;10061612;29;20138;-79
2022/10/12 11:31:32;;;;;;;8.88;2.60;;;;;;;21.20;37.11;101167.44;10064086;29;20053;-79
2022/10/12 11:36:43;;;;;;;9.48;3.10;;;;;;;20.56;38.07;101161.03;10026905;29;20053;-80
2022/10/12 11:42:13;;;;;;;15.90;7.55;;;;;;;20.25;38.62;101153.50;10037163;29;20045;-80
2022/10/12 11:47:34;;;;;;;7.03;2.10;;;;;;;20.40;39.51;101148.22;10056014;29;20048;-79
2022/10/12 11:52:41;;;;;;;8.98;2.17;;;;;;;20.51;36.42;101147.88;10094941;29;20068;-78
2022/10/12 11:57:44;;;;;;;7.25;1.25;;;;;;;19.32;35.68;101133.63;10068162;29;20418;-81
2022/10/12 12:02:55;;;;;;;3.42;1.33;;;;;;;19.90;35.97;101143.72;10037014;29;20065;-80
2022/10/12 12:07:57;;;;;;;3.90;1.40;;;;;;;20.17;34.69;101139.84;10046267;29;20140;-79
2022/10/12 12:13:17;;;;;;;5.72;2.50;;;;;;;19.94;35.09;101131.47;10033686;29;20056;-80
2022/10/12 12:18:23;;;;;;;5.25;1.40;;;;;;;18.97;35.62;101125.44;10043719;29;20188;-80
2022/10/12 12:23:29;;;;;;;6.38;1.73;;;;;;;19.27;35.79;101131.41;10031384;29;20194;-79
2022/10/12 12:28:32;;;;;;;5.88;2.63;;;;;;;19.02;36.71;101117.66;10038090;29;20053;-80
2022/10/12 12:33:40;;;;;;;7.45;2.38;;;;;;;19.26;35.58;101123.41;10044372;29;20082;-80
2022/10/12 12:38:51;;;;;;;5.47;3.47;;;;;;;20.02;34.02;101119.72;10046257;29;20164;-79
2022/10/12 12:44:04;;;;;;;4.82;1.15;;;;;;;20.30;33.80;101103.88;10053647;29;20521;-79
2022/10/12 12:54:41;;;;;;;2.42;1.02;;;;;;;21.75;32.34;101089.16;10447225;27;20422;-79
2022/10/12 13:00:13;;;;;;;4.68;2.42;;;;;;;21.10;34.68;101081.28;10409635;28;21007;-78
2022/10/12 13:05:35;;;;;;;7.20;4.03;;;;;;;21.82;34.38;101081.91;10404827;28;20153;-80
2022/10/12 13:10:45;;;;;;;;;;;;;;;22.10;33.95;101086.84;10392386;28;20661;-80
2022/10/12 13:16:03;;;;;;;5.63;1.80;;;;;;;22.77;32.79;101081.44;10407530;28;19974;-80
2022/10/12 13:21:08;;;;;;;9.68;3.95;;;;;;;23.78;31.49;101068.03;10403367;28;20087;-81
2022/10/12 13:26:18;;;;;;;5.47;2.88;;;;;;;23.11;32.37;101066.34;10409508;28;20052;-79
2022/10/12 13:31:25;;;;;;;6.68;1.70;;;;;;;24.70;30.08;101061.63;10404838;28;20053;-80
2022/10/12 13:36:30;;;;;;;3.50;2.05;;;;;;;24.59;30.26;101050.34;10403129;28;20047;-79
2022/10/12 13:41:35;;;;;;;6.30;2.28;;;;;;;25.03;30.19;101046.41;10399138;28;20525;-81
2022/10/12 13:46:41;;;;;;;16.33;6.72;;;;;;;23.56;31.95;101052.53;10406688;28;20045;-80
2022/10/12 13:51:46;;;;;;;8.13;3.20;;;;;;;22.44;32.89;101049.97;10406142;28;20041;-79
2022/10/12 13:56:55;;;;;;;9.13;4.07;;;;;;;23.45;32.67;101037.47;10393361;28;20113;-80
2022/10/12 14:02:00;;;;;;;6.20;2.65;;;;;;;22.68;33.29;101036.03;10390131;28;20041;-79
2022/10/12 14:07:06;;;;;;;4.72;1.50;;;;;;;22.72;32.34;101020.91;10370557;28;20516;-80
2022/10/12 14:12:12;;;;;;;19.85;12.18;;;;;;;21.97;33.45;101026.41;10368863;28;20065;-79
2022/10/12 14:17:15;;;;;;;6.97;2.25;;;;;;;21.47;34.24;101022.31;10377143;28;20172;-78
2022/10/12 14:22:24;;;;;;;4.85;2.70;;;;;;;21.58;33.63;101008.22;10357015;28;20081;-79
2022/10/12 14:27:28;;;;;;;7.20;3.13;;;;;;;20.10;35.86;101008.78;10341214;28;20778;-77
2022/10/12 14:32:41;;;;;;;5.97;2.15;;;;;;;20.55;35.69;100996.44;10349380;28;20132;-81
2022/10/12 14:37:44;;;;;;;4.03;1.85;;;;;;;20.77;35.58;101003.00;10353981;28;20054;-79
2022/10/12 14:42:58;;;;;;;8.10;3.30;;;;;;;20.15;36.84;101000.06;10360869;28;20068;-80
2022/10/12 14:48:02;;;;;;;3.80;1.23;;;;;;;19.32;37.82;100987.41;10346974;28;20058;-78
2022/10/12 14:53:09;;;;;;;5.60;1.42;;;;;;;20.21;36.46;100984.88;10356893;28;20049;-78
2022/10/12 14:58:16;;;;;;;5.15;1.60;;;;;;;19.29;38.42;100981.44;10380140;28;20045;-79
2022/10/12 15:03:19;;;;;;;5.07;1.40;;;;;;;19.37;38.39;100974.13;10373221;28;20057;-79
2022/10/12 15:08:22;;;;;;;4.18;1.67;;;;;;;18.91;39.42;100968.22;10372223;28;20132;-79
2022/10/12 15:13:26;;;;;;;7.43;1.52;;;;;;;18.96;39.38;100970.47;10364258;28;20668;-79
2022/10/12 15:18:29;;;;;;;5.82;1.60;;;;;;;18.68;40.30;100965.22;10380297;28;20045;-79
2022/10/12 15:23:32;;;;;;;5.43;1.50;;;;;;;18.72;40.70;100957.56;10378693;28;20057;-78
2022/10/12 15:28:36;;;;;;;5.60;2.28;;;;;;;18.07;41.84;100963.50;10381915;28;20056;-79
2022/10/12 15:33:40;;;;;;;6.07;2.40;;;;;;;17.14;43.58;100947.59;10379715;28;20423;-79
2022/10/12 15:38:42;;;;;;;6.32;2.30;;;;;;;16.70;44.93;100933.84;10380140;28;20528;-78
2022/10/12 15:43:47;;;;;;;6.68;1.95;;;;;;;16.79;45.08;100940.19;10375364;28;20052;-79
2022/10/12 15:48:50;;;;;;;5.20;1.60;;;;;;;16.85;44.69;100927.88;10373398;28;20061;-81
2022/10/12 15:53:54;;;;;;;5.70;2.10;;;;;;;16.73;45.53;100933.53;10379343;28;20057;-78
2022/10/12 15:58:59;;;;;;;6.80;2.28;;;;;;;16.25;46.24;100936.41;10376028;28;20057;-76
2022/10/12 16:04:04;;;;;;;8.82;5.03;;;;;;;15.72;47.24;100935.13;10368372;28;20047;-79
2022/10/12 16:09:07;;;;;;;12.45;3.15;;;;;;;15.38;48.15;100940.13;10380451;28;20041;-78
2022/10/12 16:14:14;;;;;;;6.35;3.33;;;;;;;15.17;49.05;100940.22;10365476;28;20045;-79
2022/10/12 16:19:16;;;;;;;8.23;2.95;;;;;;;15.01;49.54;100940.78;10352241;28;20584;-79
2022/10/12 16:24:19;;;;;;;6.82;3.08;;;;;;;14.81;50.25;100934.47;10354613;28;20654;-78
2022/10/12 16:29:23;;;;;;;7.47;2.50;;;;;;;14.73;50.51;100937.88;10373724;28;20530;-77
2022/10/12 16:34:29;;;;;;;6.07;1.95;;;;;;;14.65;50.58;100918.78;10381158;28;20053;-79
2022/10/12 16:39:32;;;;;;;7.10;2.45;;;;;;;14.58;51.63;100917.59;10383636;28;21630;-78
2022/10/12 16:44:37;;;;;;;11.75;3.00;;;;;;;14.46;51.94;100918.72;10381678;28;20495;-80
2022/10/12 16:49:40;;;;;;;4.82;2.00;;;;;;;14.20;52.79;100932.63;10407327;28;20049;-78
2022/10/12 16:54:43;;;;;;;9.63;2.50;;;;;;;13.91;53.89;100933.34;10380520;28;20051;-79
2022/10/12 16:59:47;;;;;;;6.93;2.20;;;;;;;13.60;54.80;100932.44;10373398;28;20069;-79
2022/10/12 17:04:50;;;;;;;8.35;2.60;;;;;;;13.45;55.48;100931.88;10357934;28;20054;-78
2022/10/12 17:09:54;;;;;;;5.90;2.85;;;;;;;13.27;56.12;100920.78;10362471;28;20056;-78
2022/10/12 17:14:58;;;;;;;11.63;6.18;;;;;;;13.35;55.99;100927.34;10356555;28;21214;-79
2022/10/12 17:20:01;;;;;;;11.13;3.67;;;;;;;13.30;55.98;100935.81;10367739;28;20061;-79
2022/10/12 17:25:09;;;;;;;8.52;3.72;;;;;;;13.24;56.21;100928.25;10357312;28;20065;-80
2022/10/12 17:30:13;;;;;;;7.90;4.00;;;;;;;13.18;56.62;100926.91;10349436;28;20042;-78
2022/10/12 17:35:16;;;;;;;10.60;3.75;;;;;;;12.96;57.47;100933.22;10362986;28;20045;-80
2022/10/12 17:40:19;;;;;;;11.35;4.00;;;;;;;12.94;57.60;100942.44;10374180;28;20059;-79
2022/10/12 17:45:23;;;;;;;12.27;4.20;;;;;;;12.66;58.77;100946.53;10363364;28;20057;-81
2022/10/12 17:50:27;;;;;;;8.52;4.45;;;;;;;12.14;60.93;100954.22;10377794;28;20073;-79
2022/10/12 17:55:29;;;;;;;8.35;3.78;;;;;;;12.20;60.94;100947.47;10378107;28;20052;-77
2022/10/12 18:00:51;;;;;;;12.20;4.68;;;;;;;12.20;60.84;100955.56;10367115;28;20092;-79
2022/10/12 18:05:54;;;;;;;9.95;4.70;;;;;;;12.30;60.87;100949.34;10362805;28;20055;-79
2022/10/12 18:10:58;;;;;;;;;;;;;;;12.33;60.80;100940.19;11541597;22;20141;-78
2022/10/12 18:29:43;;;;;;;14.95;7.28;;;;;;;12.13;61.32;100956.06;10413507;28;20033;-80
2022/10/12 18:34:45;;;;;;;20.23;7.97;;;;;;;12.00;61.66;100949.06;10426554;28;20049;-81
2022/10/12 18:39:48;;;;;;;14.95;6.75;;;;;;;11.97;62.49;100949.31;10424230;28;20063;-80
2022/10/12 18:44:52;;;;;;;;;;;;;;;11.44;64.43;100963.22;10426451;28;20151;-81
2022/10/12 18:49:55;;;;;;;12.55;5.97;;;;;;;11.29;65.48;100970.59;10425474;28;20035;-81
2022/10/12 18:54:58;;;;;;;12.00;5.65;;;;;;;11.37;65.44;100961.94;10422591;28;20049;-78
2022/10/12 19:00:03;;;;;;;11.68;5.72;;;;;;;11.64;65.12;100949.09;10404521;28;20049;-80
2022/10/12 19:05:07;;;;;;;15.98;8.05;;;;;;;11.69;64.14;100956.81;10427397;28;20595;-79
2022/10/12 19:10:10;;;;;;;14.43;7.68;;;;;;;11.73;64.16;100945.69;10425399;28;20060;-80
2022/10/12 19:15:14;;;;;;;15.95;7.45;;;;;;;11.63;64.20;100936.63;10425552;28;20045;-79
2022/10/12 19:20:17;;;;;;;17.80;8.60;;;;;;;11.50;64.61;100938.53;10422949;28;20048;-81
2022/10/12 19:25:20;;;;;;;19.38;9.35;;;;;;;11.51;64.58;100932.16;10418270;28;20384;-81
2022/10/12 19:30:25;;;;;;;11.20;6.70;;;;;;;11.61;64.70;100932.34;10375211;28;20047;-80
2022/10/12 19:35:28;;;;;;;16.13;7.80;;;;;;;11.70;64.26;100932.47;10406615;28;20057;-80
2022/10/12 19:40:33;;;;;;;;;;;;;;;11.67;64.07;100923.78;10410489;28;20045;-80
2022/10/12 19:45:40;;;;;;;15.32;7.65;;;;;;;11.57;64.24;100915.53;10399148;28;19932;-79
2022/10/12 19:50:44;;;;;;;13.70;8.02;;;;;;;11.50;64.34;100919.69;10424965;28;20045;-78
2022/10/12 19:55:47;;;;;;;14.35;8.13;;;;;;;11.42;64.60;100924.81;10418056;28;20055;-80
2022/10/12 20:00:51;;;;;;;14.82;7.43;;;;;;;11.30;64.88;100921.22;10421145;28;20048;-80
2022/10/12 20:05:54;;;;;;;16.25;7.10;;;;;;;11.16;65.07;100922.28;10423916;28;20052;-79
2022/10/12 20:10:57;;;;;;;16.13;7.70;;;;;;;10.97;65.81;100914.69;10423170;28;20061;-79
2022/10/12 20:16:01;;;;;;;;;;;;;;;10.78;66.64;100914.34;10416889;28;20049;-80
2022/10/12 20:21:04;;;;;;;13.10;7.45;;;;;;;10.72;66.90;100915.59;10417661;28;20558;-79
2022/10/12 20:26:09;;;;;;;14.02;7.32;;;;;;;10.70;66.85;100927.47;10423931;28;20494;-80
2022/10/12 20:31:13;;;;;;;16.27;7.72;;;;;;;10.69;66.73;100921.22;10420999;28;20041;-79
2022/10/12 20:36:20;;;;;;;16.20;7.55;;;;;;;10.63;66.64;100918.97;10423806;28;20045;-81
2022/10/12 20:41:24;;;;;;;15.70;8.27;;;;;;;10.46;66.94;100917.53;10429591;28;20086;-79
2022/10/12 20:46:29;;;;;;;11.10;7.25;;;;;;;10.39;67.10;100911.75;10433355;28;20594;-81
2022/10/12 20:51:35;;;;;;;15.88;8.38;;;;;;;10.35;67.24;100895.94;10417343;28;20053;-79
2022/10/12 20:56:40;;;;;;;17.08;8.90;;;;;;;10.27;67.78;100898.34;10425428;28;20107;-80
2022/10/12 21:01:45;;;;;;;22.35;8.77;;;;;;;10.27;68.27;100899.19;10427357;28;20049;-81
2022/10/12 21:06:48;;;;;;;18.73;8.90;;;;;;;10.27;68.47;100895.66;10424859;28;20049;-81
2022/10/12 21:11:50;;;;;;;;;;;;;;;10.31;68.53;100892.63;10429008;28;20059;-81
2022/10/12 21:16:54;;;;;;;22.13;9.50;;;;;;;10.33;68.41;100893.38;10423634;28;20439;-80
2022/10/12 21:21:57;;;;;;;16.17;9.65;;;;;;;10.41;68.45;100890.13;10428388;28;20053;-80
2022/10/12 21:27:00;;;;;;;;;;;;;;;10.45;68.25;100883.59;10432293;28;20061;-79
2022/10/12 21:32:04;;;;;;;16.30;8.93;;;;;;;10.44;68.12;100889.06;10420532;28;19942;-80
2022/10/12 21:37:07;;;;;;;16.05;9.90;;;;;;;10.35;68.18;100901.31;10398833;28;20055;-80
2022/10/12 21:42:09;;;;;;;;;;;;;;;10.20;67.81;100897.88;10424669;28;20053;-79
2022/10/12 21:47:14;;;;;;;15.50;10.07;;;;;;;10.05;68.18;100899.00;10426151;28;20058;-80
2022/10/12 21:52:20;;;;;;;22.05;10.45;;;;;;;9.98;69.05;100890.50;10426129;28;20041;-79
2022/10/12 21:57:23;;;;;;;17.02;9.57;;;;;;;10.10;69.24;100892.34;10404085;28;20409;-79
2022/10/12 22:02:27;;;;;;;;;;;;;;;10.17;69.22;100888.25;10425887;28;20041;-78
2022/10/12 22:07:30;;;;;;;18.48;9.85;;;;;;;10.13;69.13;100880.53;10420662;28;19925;-78
2022/10/12 22:12:32;;;;;;;;;;;;;;;10.08;69.15;100882.66;10421201;28;20108;-80
2022/10/12 22:17:37;;;;;;;17.88;9.60;;;;;;;9.98;69.43;100887.81;10429872;28;19972;-81
2022/10/12 22:22:40;;;;;;;22.63;10.35;;;;;;;9.90;70.00;100883.03;10427983;28;21517;-79
2022/10/12 22:27:42;;;;;;;20.20;10.20;;;;;;;9.84;70.12;100883.41;10429252;28;20047;-79
2022/10/12 22:32:47;;;;;;;17.88;10.07;;;;;;;9.81;70.37;100877.38;10427452;28;20041;-78
2022/10/12 22:37:50;;;;;;;14.85;10.02;;;;;;;9.60;70.84;100880.63;10425788;28;20557;-79
2022/10/12 22:42:52;;;;;;;;;;;;;;;9.63;71.28;100879.53;10409636;28;20073;-80
2022/10/12 22:47:56;;;;;;;19.00;11.07;;;;;;;9.57;71.06;100874.59;10429426;28;19924;-80
2022/10/12 22:52:59;;;;;;;23.20;10.98;;;;;;;9.52;71.56;100866.88;10407010;28;20138;-79
2022/10/12 22:58:02;;;;;;;;;;;;;;;9.49;71.80;100867.94;10425150;28;20053;-80
2022/10/12 23:03:06;;;;;;;19.60;10.43;;;;;;;9.61;72.14;100871.59;10406004;28;19924;-80
2022/10/12 23:08:09;;;;;;;18.90;10.68;;;;;;;9.79;71.81;100872.16;10421552;28;20044;-79
2022/10/12 23:13:12;;;;;;;14.20;9.55;;;;;;;9.92;71.30;100866.78;10422779;28;20064;-79
2022/10/12 23:18:16;;;;;;;;;;;;;;;9.95;70.89;100863.88;10421460;28;20713;-78
2022/10/12 23:23:18;;;;;;;19.25;11.25;;;;;;;9.99;70.82;100851.13;10423873;28;20130;-78
2022/10/12 23:28:21;;;;;;;;;;;;;;;9.96;70.96;100840.63;10418503;28;20044;-79
2022/10/12 23:33:25;;;;;;;15.50;10.40;;;;;;;9.88;71.02;100825.06;10422707;28;19924;-78
2022/10/12 23:38:29;;;;;;;18.55;10.15;;;;;;;9.82;71.42;100823.63;10418264;28;20041;-78
2022/10/12 23:43:33;;;;;;;17.38;9.32;;;;;;;9.77;71.92;100833.84;10447140;28;20125;-78
2022/10/12 23:48:38;;;;;;;18.23;10.35;;;;;;;9.65;71.84;100840.94;10429630;28;20056;-77
2022/10/12 23:53:41;;;;;;;16.40;10.55;;;;;;;9.59;72.45;100845.84;10435944;28;20053;-80